sensor_id;sensor_type;location;lat;lon;timestamp;P1;P2;P0
55485;PMS5003;49383;-25.924;28.194;2023-03-14T00:00:22;200;165;
55485;PMS5003;49383;-25.924;28.194;2023-03-14T00:02:51;58;42;
55485;PMS5003;49383;-25.924;28.194;2023-03-14T00:05:13;4;4;
55485;PMS5003;49383;-25.924;28.194;2023-03-14T00:07:39;2;2;
55485;PMS5003;49383;-25.924;28.194;2023-03-14T00:10:04;2;1;
55485;PMS5003;49383;-25.924;28.194;2023-03-14T00:12:28;1;1;
55485;PMS5003;49383;-25.924;28.194;2023-03-14T00:14:53;1;1;
55485;PMS5003;49383;-25.924;28.194;2023-03-14T00:17:19;1;1;
55485;PMS5003;49383;-25.924;28.194;2023-03-14T00:19:44;0;0;
55485;PMS5003;49383;-25.924;28.194;2023-03-14T00:22:09;1;1;
55485;PMS5003;49383;-25.924;28.194;2023-03-14T00:24:34;1;1;
55485;PMS5003;49383;-25.924;28.194;2023-03-14T00:26:59;1;1;
55485;PMS5003;49383;-25.924;28.194;2023-03-14T00:29:24;0;0;
55485;PMS5003;49383;-25.924;28.194;2023-03-14T00:31:49;1;1;
55485;PMS5003;49383;-25.924;28.194;2023-03-14T00:34:14;1;1;
55485;PMS5003;49383;-25.924;28.194;2023-03-14T00:36:39;1;1;
55485;PMS5003;49383;-25.924;28.194;2023-03-14T00:39:05;156;125;
55485;PMS5003;49383;-25.924;28.194;2023-03-14T00:41:31;62;52;
55485;PMS5003;49383;-25.924;28.194;2023-03-14T00:43:56;6;5;
55485;PMS5003;49383;-25.924;28.194;2023-03-14T00:46:22;2;2;
55485;PMS5003;49383;-25.924;28.194;2023-03-14T00:48:47;1;1;
55485;PMS5003;49383;-25.924;28.194;2023-03-14T00:51:12;2;2;
55485;PMS5003;49383;-25.924;28.194;2023-03-14T00:53:38;3;3;
55485;PMS5003;49383;-25.924;28.194;2023-03-14T00:56:02;0;0;
55485;PMS5003;49383;-25.924;28.194;2023-03-14T00:58:27;1;1;
55485;PMS5003;49383;-25.924;28.194;2023-03-14T01:00:52;2;2;
55485;PMS5003;49383;-25.924;28.194;2023-03-14T01:03:17;1;1;
55485;PMS5003;49383;-25.924;28.194;2023-03-14T01:05:42;1;1;
55485;PMS5003;49383;-25.924;28.194;2023-03-14T01:08:08;1;1;
55485;PMS5003;49383;-25.924;28.194;2023-03-14T01:10:33;1;1;
55485;PMS5003;49383;-25.924;28.194;2023-03-14T01:12:58;2;2;
55485;PMS5003;49383;-25.924;28.194;2023-03-14T01:15:23;1;1;
55485;PMS5003;49383;-25.924;28.194;2023-03-14T01:17:48;1;1;
55485;PMS5003;49383;-25.924;28.194;2023-03-14T01:20:14;1;1;
55485;PMS5003;49383;-25.924;28.194;2023-03-14T01:22:38;1;1;
55485;PMS5003;49383;-25.924;28.194;2023-03-14T01:25:03;2;2;
55485;PMS5003;49383;-25.924;28.194;2023-03-14T01:27:28;1;1;
55485;PMS5003;49383;-25.924;28.194;2023-03-14T01:29:53;1;1;
55485;PMS5003;49383;-25.924;28.194;2023-03-14T01:32:18;1;1;
55485;PMS5003;49383;-25.924;28.194;2023-03-14T01:34:43;1;0;
55485;PMS5003;49383;-25.924;28.194;2023-03-14T01:37:09;1;1;
55485;PMS5003;49383;-25.924;28.194;2023-03-14T01:39:34;1;1;
55485;PMS5003;49383;-25.924;28.194;2023-03-14T01:42:00;1;1;
55485;PMS5003;49383;-25.924;28.194;2023-03-14T01:44:24;1;1;
55485;PMS5003;49383;-25.924;28.194;2023-03-14T01:46:49;2;2;
55485;PMS5003;49383;-25.924;28.194;2023-03-14T01:49:18;1;0;
55485;PMS5003;49383;-25.924;28.194;2023-03-14T01:51:42;2;2;
55485;PMS5003;49383;-25.924;28.194;2023-03-14T01:54:06;1;1;
55485;PMS5003;49383;-25.924;28.194;2023-03-14T01:56:30;0;0;
55485;PMS5003;49383;-25.924;28.194;2023-03-14T01:58:55;0;0;
55485;PMS5003;49383;-25.924;28.194;2023-03-14T02:01:21;2;2;
55485;PMS5003;49383;-25.924;28.194;2023-03-14T02:03:46;1;1;
55485;PMS5003;49383;-25.924;28.194;2023-03-14T02:06:10;0;0;
55485;PMS5003;49383;-25.924;28.194;2023-03-14T02:08:35;1;1;
55485;PMS5003;49383;-25.924;28.194;2023-03-14T02:11:00;2;2;
55485;PMS5003;49383;-25.924;28.194;2023-03-14T02:13:25;2;2;
55485;PMS5003;49383;-25.924;28.194;2023-03-14T02:15:50;2;2;
55485;PMS5003;49383;-25.924;28.194;2023-03-14T02:18:16;2;2;
55485;PMS5003;49383;-25.924;28.194;2023-03-14T02:20:42;2;2;
55485;PMS5003;49383;-25.924;28.194;2023-03-14T02:23:06;2;2;
55485;PMS5003;49383;-25.924;28.194;2023-03-14T02:25:34;3;2;
55485;PMS5003;49383;-25.924;28.194;2023-03-14T02:27:56;0;0;
55485;PMS5003;49383;-25.924;28.194;2023-03-14T02:30:22;1;1;
55485;PMS5003;49383;-25.924;28.194;2023-03-14T02:32:47;2;2;
55485;PMS5003;49383;-25.924;28.194;2023-03-14T02:35:12;2;2;
55485;PMS5003;49383;-25.924;28.194;2023-03-14T02:37:38;2;2;
55485;PMS5003;49383;-25.924;28.194;2023-03-14T02:40:02;3;3;
55485;PMS5003;49383;-25.924;28.194;2023-03-14T02:42:27;2;2;
55485;PMS5003;49383;-25.924;28.194;2023-03-14T02:44:53;3;2;
55485;PMS5003;49383;-25.924;28.194;2023-03-14T02:47:17;2;2;
55485;PMS5003;49383;-25.924;28.194;2023-03-14T02:49:42;3;3;
55485;PMS5003;49383;-25.924;28.194;2023-03-14T02:52:07;3;3;
55485;PMS5003;49383;-25.924;28.194;2023-03-14T02:54:32;3;3;
55485;PMS5003;49383;-25.924;28.194;2023-03-14T02:56:57;3;3;
55485;PMS5003;49383;-25.924;28.194;2023-03-14T02:59:22;6;4;
55485;PMS5003;49383;-25.924;28.194;2023-03-14T03:01:48;4;3;
55485;PMS5003;49383;-25.924;28.194;2023-03-14T03:04:13;3;3;
55485;PMS5003;49383;-25.924;28.194;2023-03-14T03:06:38;5;4;
55485;PMS5003;49383;-25.924;28.194;2023-03-14T03:09:03;4;4;
55485;PMS5003;49383;-25.924;28.194;2023-03-14T03:11:28;4;4;
55485;PMS5003;49383;-25.924;28.194;2023-03-14T03:13:53;6;5;
55485;PMS5003;49383;-25.924;28.194;2023-03-14T03:16:18;3;3;
55485;PMS5003;49383;-25.924;28.194;2023-03-14T03:18:44;79;72;
55485;PMS5003;49383;-25.924;28.194;2023-03-14T03:21:09;50;43;
55485;PMS5003;49383;-25.924;28.194;2023-03-14T03:23:34;59;51;
55485;PMS5003;49383;-25.924;28.194;2023-03-14T03:25:59;37;32;
55485;PMS5003;49383;-25.924;28.194;2023-03-14T03:28:25;19;17;
55485;PMS5003;49383;-25.924;28.194;2023-03-14T03:30:50;16;12;
55485;PMS5003;49383;-25.924;28.194;2023-03-14T03:33:15;18;18;
55485;PMS5003;49383;-25.924;28.194;2023-03-14T03:35:42;6;6;
55485;PMS5003;49383;-25.924;28.194;2023-03-14T03:38:05;24;19;
55485;PMS5003;49383;-25.924;28.194;2023-03-14T03:40:31;8;8;
55485;PMS5003;49383;-25.924;28.194;2023-03-14T03:42:56;5;5;
55485;PMS5003;49383;-25.924;28.194;2023-03-14T03:45:21;6;5;
55485;PMS5003;49383;-25.924;28.194;2023-03-14T03:47:46;5;5;
55485;PMS5003;49383;-25.924;28.194;2023-03-14T03:50:11;5;4;
55485;PMS5003;49383;-25.924;28.194;2023-03-14T03:52:37;67;54;
55485;PMS5003;49383;-25.924;28.194;2023-03-14T03:55:02;38;34;
55485;PMS5003;49383;-25.924;28.194;2023-03-14T03:57:27;39;33;
55485;PMS5003;49383;-25.924;28.194;2023-03-14T03:59:53;10;10;
55485;PMS5003;49383;-25.924;28.194;2023-03-14T04:02:18;50;47;
55485;PMS5003;49383;-25.924;28.194;2023-03-14T04:04:44;31;25;
55485;PMS5003;49383;-25.924;28.194;2023-03-14T04:07:09;10;9;
55485;PMS5003;49383;-25.924;28.194;2023-03-14T04:09:34;5;5;
55485;PMS5003;49383;-25.924;28.194;2023-03-14T04:12:00;4;4;
55485;PMS5003;49383;-25.924;28.194;2023-03-14T04:14:26;7;6;
55485;PMS5003;49383;-25.924;28.194;2023-03-14T04:16:51;27;24;
55485;PMS5003;49383;-25.924;28.194;2023-03-14T04:19:16;5;5;
55485;PMS5003;49383;-25.924;28.194;2023-03-14T04:21:41;5;5;
55485;PMS5003;49383;-25.924;28.194;2023-03-14T04:24:06;5;4;
55485;PMS5003;49383;-25.924;28.194;2023-03-14T04:26:31;5;5;
55485;PMS5003;49383;-25.924;28.194;2023-03-14T04:28:57;4;4;
55485;PMS5003;49383;-25.924;28.194;2023-03-14T04:31:22;17;17;
55485;PMS5003;49383;-25.924;28.194;2023-03-14T04:33:47;13;12;
55485;PMS5003;49383;-25.924;28.194;2023-03-14T04:36:12;8;6;
55485;PMS5003;49383;-25.924;28.194;2023-03-14T04:38:38;29;24;
55485;PMS5003;49383;-25.924;28.194;2023-03-14T04:41:03;33;26;
55485;PMS5003;49383;-25.924;28.194;2023-03-14T04:43:28;271;207;
55485;PMS5003;49383;-25.924;28.194;2023-03-14T04:45:53;117;100;
55485;PMS5003;49383;-25.924;28.194;2023-03-14T04:48:18;60;47;
55485;PMS5003;49383;-25.924;28.194;2023-03-14T04:50:45;140;113;
55485;PMS5003;49383;-25.924;28.194;2023-03-14T04:53:09;68;55;
55485;PMS5003;49383;-25.924;28.194;2023-03-14T04:55:35;12;11;
55485;PMS5003;49383;-25.924;28.194;2023-03-14T04:58:01;26;21;
55485;PMS5003;49383;-25.924;28.194;2023-03-14T05:00:26;9;8;
55485;PMS5003;49383;-25.924;28.194;2023-03-14T05:02:51;14;14;
55485;PMS5003;49383;-25.924;28.194;2023-03-14T05:05:16;6;6;
55485;PMS5003;49383;-25.924;28.194;2023-03-14T05:07:41;5;5;
55485;PMS5003;49383;-25.924;28.194;2023-03-14T05:10:07;6;5;
55485;PMS5003;49383;-25.924;28.194;2023-03-14T05:12:32;7;6;
55485;PMS5003;49383;-25.924;28.194;2023-03-14T05:14:57;5;5;
55485;PMS5003;49383;-25.924;28.194;2023-03-14T05:17:22;4;4;
55485;PMS5003;49383;-25.924;28.194;2023-03-14T05:19:47;2;2;
55485;PMS5003;49383;-25.924;28.194;2023-03-14T05:22:12;49;38;
55485;PMS5003;49383;-25.924;28.194;2023-03-14T05:24:38;6;6;
55485;PMS5003;49383;-25.924;28.194;2023-03-14T05:27:04;5;5;
55485;PMS5003;49383;-25.924;28.194;2023-03-14T05:29:28;4;4;
55485;PMS5003;49383;-25.924;28.194;2023-03-14T05:31:53;4;3;
55485;PMS5003;49383;-25.924;28.194;2023-03-14T05:34:18;5;5;
55485;PMS5003;49383;-25.924;28.194;2023-03-14T05:36:44;6;6;
55485;PMS5003;49383;-25.924;28.194;2023-03-14T05:39:09;5;5;
55485;PMS5003;49383;-25.924;28.194;2023-03-14T05:41:34;3;3;
55485;PMS5003;49383;-25.924;28.194;2023-03-14T05:43:59;6;6;
55485;PMS5003;49383;-25.924;28.194;2023-03-14T05:46:24;3;3;
55485;PMS5003;49383;-25.924;28.194;2023-03-14T05:48:49;3;3;
55485;PMS5003;49383;-25.924;28.194;2023-03-14T05:51:14;5;4;
55485;PMS5003;49383;-25.924;28.194;2023-03-14T05:53:40;6;6;
55485;PMS5003;49383;-25.924;28.194;2023-03-14T05:56:05;5;4;
55485;PMS5003;49383;-25.924;28.194;2023-03-14T05:58:30;5;5;
55485;PMS5003;49383;-25.924;28.194;2023-03-14T06:00:55;3;3;
55485;PMS5003;49383;-25.924;28.194;2023-03-14T06:03:20;3;3;
55485;PMS5003;49383;-25.924;28.194;2023-03-14T06:05:45;5;5;
55485;PMS5003;49383;-25.924;28.194;2023-03-14T06:08:11;10;9;
55485;PMS5003;49383;-25.924;28.194;2023-03-14T06:10:36;6;5;
55485;PMS5003;49383;-25.924;28.194;2023-03-14T06:13:01;12;11;
55485;PMS5003;49383;-25.924;28.194;2023-03-14T06:15:26;42;34;
55485;PMS5003;49383;-25.924;28.194;2023-03-14T06:17:51;41;32;
55485;PMS5003;49383;-25.924;28.194;2023-03-14T06:20:17;46;39;
55485;PMS5003;49383;-25.924;28.194;2023-03-14T06:22:42;55;46;
55485;PMS5003;49383;-25.924;28.194;2023-03-14T06:25:08;44;37;
55485;PMS5003;49383;-25.924;28.194;2023-03-14T06:27:33;41;33;
55485;PMS5003;49383;-25.924;28.194;2023-03-14T06:29:59;36;33;
55485;PMS5003;49383;-25.924;28.194;2023-03-14T06:32:24;40;38;
55485;PMS5003;49383;-25.924;28.194;2023-03-14T06:34:50;40;37;
55485;PMS5003;49383;-25.924;28.194;2023-03-14T06:37:15;39;37;
55485;PMS5003;49383;-25.924;28.194;2023-03-14T06:39:41;38;29;
55485;PMS5003;49383;-25.924;28.194;2023-03-14T06:42:06;28;24;
55485;PMS5003;49383;-25.924;28.194;2023-03-14T06:44:32;19;18;
55485;PMS5003;49383;-25.924;28.194;2023-03-14T06:46:57;21;17;
55485;PMS5003;49383;-25.924;28.194;2023-03-14T06:49:23;20;16;
55485;PMS5003;49383;-25.924;28.194;2023-03-14T06:51:48;39;30;
55485;PMS5003;49383;-25.924;28.194;2023-03-14T06:54:14;25;20;
55485;PMS5003;49383;-25.924;28.194;2023-03-14T06:56:39;11;11;
55485;PMS5003;49383;-25.924;28.194;2023-03-14T06:59:04;12;11;
55485;PMS5003;49383;-25.924;28.194;2023-03-14T07:01:30;8;8;
55485;PMS5003;49383;-25.924;28.194;2023-03-14T07:03:55;11;10;
55485;PMS5003;49383;-25.924;28.194;2023-03-14T07:06:20;11;11;
55485;PMS5003;49383;-25.924;28.194;2023-03-14T07:08:45;9;9;
55485;PMS5003;49383;-25.924;28.194;2023-03-14T07:11:10;9;6;
55485;PMS5003;49383;-25.924;28.194;2023-03-14T07:13:35;9;8;
55485;PMS5003;49383;-25.924;28.194;2023-03-14T07:16:00;5;5;
55485;PMS5003;49383;-25.924;28.194;2023-03-14T07:18:26;6;6;
55485;PMS5003;49383;-25.924;28.194;2023-03-14T07:20:51;4;4;
55485;PMS5003;49383;-25.924;28.194;2023-03-14T07:23:16;4;4;
55485;PMS5003;49383;-25.924;28.194;2023-03-14T07:25:41;4;4;
55485;PMS5003;49383;-25.924;28.194;2023-03-14T07:28:06;4;4;
55485;PMS5003;49383;-25.924;28.194;2023-03-14T07:30:31;6;4;
55485;PMS5003;49383;-25.924;28.194;2023-03-14T07:32:56;6;5;
55485;PMS5003;49383;-25.924;28.194;2023-03-14T07:35:21;6;5;
55485;PMS5003;49383;-25.924;28.194;2023-03-14T07:37:46;8;4;
55485;PMS5003;49383;-25.924;28.194;2023-03-14T07:40:12;8;4;
55485;PMS5003;49383;-25.924;28.194;2023-03-14T07:42:36;8;6;
55485;PMS5003;49383;-25.924;28.194;2023-03-14T07:45:02;7;6;
55485;PMS5003;49383;-25.924;28.194;2023-03-14T07:47:26;6;5;
55485;PMS5003;49383;-25.924;28.194;2023-03-14T07:49:52;7;6;
55485;PMS5003;49383;-25.924;28.194;2023-03-14T07:52:17;3;3;
55485;PMS5003;49383;-25.924;28.194;2023-03-14T07:54:42;4;4;
55485;PMS5003;49383;-25.924;28.194;2023-03-14T07:57:08;22;15;
55485;PMS5003;49383;-25.924;28.194;2023-03-14T07:59:33;20;15;
55485;PMS5003;49383;-25.924;28.194;2023-03-14T08:01:58;21;16;
55485;PMS5003;49383;-25.924;28.194;2023-03-14T08:04:24;24;17;
55485;PMS5003;49383;-25.924;28.194;2023-03-14T08:06:49;22;17;
55485;PMS5003;49383;-25.924;28.194;2023-03-14T08:09:15;16;12;
55485;PMS5003;49383;-25.924;28.194;2023-03-14T08:11:40;10;9;
55485;PMS5003;49383;-25.924;28.194;2023-03-14T08:14:06;18;9;
55485;PMS5003;49383;-25.924;28.194;2023-03-14T08:16:31;12;9;
55485;PMS5003;49383;-25.924;28.194;2023-03-14T08:18:56;9;7;
55485;PMS5003;49383;-25.924;28.194;2023-03-14T08:21:21;12;11;
55485;PMS5003;49383;-25.924;28.194;2023-03-14T08:23:46;10;8;
55485;PMS5003;49383;-25.924;28.194;2023-03-14T08:26:11;10;9;
55485;PMS5003;49383;-25.924;28.194;2023-03-14T08:28:36;10;8;
55485;PMS5003;49383;-25.924;28.194;2023-03-14T08:31:01;6;5;
55485;PMS5003;49383;-25.924;28.194;2023-03-14T08:33:27;6;5;
55485;PMS5003;49383;-25.924;28.194;2023-03-14T08:35:52;7;5;
55485;PMS5003;49383;-25.924;28.194;2023-03-14T08:38:17;7;6;
55485;PMS5003;49383;-25.924;28.194;2023-03-14T08:40:42;5;4;
55485;PMS5003;49383;-25.924;28.194;2023-03-14T08:43:07;7;5;
55485;PMS5003;49383;-25.924;28.194;2023-03-14T08:45:32;6;4;
55485;PMS5003;49383;-25.924;28.194;2023-03-14T08:47:57;3;3;
55485;PMS5003;49383;-25.924;28.194;2023-03-14T08:50:22;4;4;
55485;PMS5003;49383;-25.924;28.194;2023-03-14T08:52:47;3;3;
55485;PMS5003;49383;-25.924;28.194;2023-03-14T08:55:12;1;1;
55485;PMS5003;49383;-25.924;28.194;2023-03-14T08:57:37;1;1;
55485;PMS5003;49383;-25.924;28.194;2023-03-14T09:00:03;5;4;
55485;PMS5003;49383;-25.924;28.194;2023-03-14T09:02:27;2;2;
55485;PMS5003;49383;-25.924;28.194;2023-03-14T09:04:53;3;3;
55485;PMS5003;49383;-25.924;28.194;2023-03-14T09:07:18;1;1;
55485;PMS5003;49383;-25.924;28.194;2023-03-14T09:09:43;2;2;
55485;PMS5003;49383;-25.924;28.194;2023-03-14T09:12:08;0;0;
55485;PMS5003;49383;-25.924;28.194;2023-03-14T09:14:33;2;1;
55485;PMS5003;49383;-25.924;28.194;2023-03-14T09:16:58;1;1;
55485;PMS5003;49383;-25.924;28.194;2023-03-14T09:19:23;2;2;
55485;PMS5003;49383;-25.924;28.194;2023-03-14T09:21:48;2;2;
55485;PMS5003;49383;-25.924;28.194;2023-03-14T09:24:13;1;1;
55485;PMS5003;49383;-25.924;28.194;2023-03-14T09:26:38;0;0;
55485;PMS5003;49383;-25.924;28.194;2023-03-14T09:29:04;1;1;
55485;PMS5003;49383;-25.924;28.194;2023-03-14T09:31:28;1;1;
55485;PMS5003;49383;-25.924;28.194;2023-03-14T09:33:53;1;1;
55485;PMS5003;49383;-25.924;28.194;2023-03-14T09:36:18;1;1;
55485;PMS5003;49383;-25.924;28.194;2023-03-14T09:38:44;1;1;
55485;PMS5003;49383;-25.924;28.194;2023-03-14T09:41:13;2;1;
55485;PMS5003;49383;-25.924;28.194;2023-03-14T09:43:34;1;1;
55485;PMS5003;49383;-25.924;28.194;2023-03-14T09:45:59;0;0;
55485;PMS5003;49383;-25.924;28.194;2023-03-14T09:48:26;1;0;
55485;PMS5003;49383;-25.924;28.194;2023-03-14T09:50:50;1;0;
55485;PMS5003;49383;-25.924;28.194;2023-03-14T09:53:15;2;0;
55485;PMS5003;49383;-25.924;28.194;2023-03-14T09:55:39;0;0;
55485;PMS5003;49383;-25.924;28.194;2023-03-14T09:58:09;1;1;
55485;PMS5003;49383;-25.924;28.194;2023-03-14T10:00:30;0;0;
55485;PMS5003;49383;-25.924;28.194;2023-03-14T10:02:55;0;0;
55485;PMS5003;49383;-25.924;28.194;2023-03-14T10:05:21;1;1;
55485;PMS5003;49383;-25.924;28.194;2023-03-14T10:07:44;1;1;
55485;PMS5003;49383;-25.924;28.194;2023-03-14T10:10:10;0;0;
55485;PMS5003;49383;-25.924;28.194;2023-03-14T10:12:35;1;1;
55485;PMS5003;49383;-25.924;28.194;2023-03-14T10:15:02;0;0;
55485;PMS5003;49383;-25.924;28.194;2023-03-14T10:17:25;1;1;
55485;PMS5003;49383;-25.924;28.194;2023-03-14T10:19:51;0;0;
55485;PMS5003;49383;-25.924;28.194;2023-03-14T10:22:15;0;0;
55485;PMS5003;49383;-25.924;28.194;2023-03-14T10:24:40;0;0;
55485;PMS5003;49383;-25.924;28.194;2023-03-14T10:27:05;0;0;
55485;PMS5003;49383;-25.924;28.194;2023-03-14T10:29:51;0;0;
55485;PMS5003;49383;-25.924;28.194;2023-03-14T10:31:58;0;0;
55485;PMS5003;49383;-25.924;28.194;2023-03-14T10:34:23;0;0;
55485;PMS5003;49383;-25.924;28.194;2023-03-14T10:36:45;0;0;
55485;PMS5003;49383;-25.924;28.194;2023-03-14T10:41:35;0;0;
55485;PMS5003;49383;-25.924;28.194;2023-03-14T10:44:00;0;0;
55485;PMS5003;49383;-25.924;28.194;2023-03-14T10:46:26;1;0;
55485;PMS5003;49383;-25.924;28.194;2023-03-14T10:48:51;0;0;
55485;PMS5003;49383;-25.924;28.194;2023-03-14T10:51:18;1;1;
55485;PMS5003;49383;-25.924;28.194;2023-03-14T10:53:41;0;0;
55485;PMS5003;49383;-25.924;28.194;2023-03-14T10:56:06;0;0;
55485;PMS5003;49383;-25.924;28.194;2023-03-14T10:58:33;1;1;
55485;PMS5003;49383;-25.924;28.194;2023-03-14T11:01:00;0;0;
55485;PMS5003;49383;-25.924;28.194;2023-03-14T11:03:21;0;0;
55485;PMS5003;49383;-25.924;28.194;2023-03-14T11:05:48;0;0;
55485;PMS5003;49383;-25.924;28.194;2023-03-14T11:08:12;0;0;
55485;PMS5003;49383;-25.924;28.194;2023-03-14T11:10:37;0;0;
55485;PMS5003;49383;-25.924;28.194;2023-03-14T11:13:04;0;0;
55485;PMS5003;49383;-25.924;28.194;2023-03-14T11:15:29;0;0;
55485;PMS5003;49383;-25.924;28.194;2023-03-14T11:17:56;0;0;
55485;PMS5003;49383;-25.924;28.194;2023-03-14T11:20:22;0;0;
55485;PMS5003;49383;-25.924;28.194;2023-03-14T11:22:43;0;0;
55485;PMS5003;49383;-25.924;28.194;2023-03-14T11:27:35;0;0;
55485;PMS5003;49383;-25.924;28.194;2023-03-14T11:29:58;0;0;
55485;PMS5003;49383;-25.924;28.194;2023-03-14T11:32:27;0;0;
55485;PMS5003;49383;-25.924;28.194;2023-03-14T11:34:49;0;0;
55485;PMS5003;49383;-25.924;28.194;2023-03-14T11:37:14;0;0;
55485;PMS5003;49383;-25.924;28.194;2023-03-14T11:39:38;2;0;
55485;PMS5003;49383;-25.924;28.194;2023-03-14T11:42:03;0;0;
55485;PMS5003;49383;-25.924;28.194;2023-03-14T11:44:29;1;1;
55485;PMS5003;49383;-25.924;28.194;2023-03-14T11:46:55;0;0;
55485;PMS5003;49383;-25.924;28.194;2023-03-14T11:49:22;0;0;
55485;PMS5003;49383;-25.924;28.194;2023-03-14T11:51:44;0;0;
55485;PMS5003;49383;-25.924;28.194;2023-03-14T11:54:11;0;0;
55485;PMS5003;49383;-25.924;28.194;2023-03-14T11:56:34;0;0;
55485;PMS5003;49383;-25.924;28.194;2023-03-14T11:58:59;0;0;
55485;PMS5003;49383;-25.924;28.194;2023-03-14T12:01:25;0;0;
55485;PMS5003;49383;-25.924;28.194;2023-03-14T12:03:51;0;0;
55485;PMS5003;49383;-25.924;28.194;2023-03-14T12:06:15;0;0;
55485;PMS5003;49383;-25.924;28.194;2023-03-14T12:08:40;0;0;
55485;PMS5003;49383;-25.924;28.194;2023-03-14T12:11:05;0;0;
55485;PMS5003;49383;-25.924;28.194;2023-03-14T12:13:30;0;0;
55485;PMS5003;49383;-25.924;28.194;2023-03-14T12:15:55;0;0;
55485;PMS5003;49383;-25.924;28.194;2023-03-14T12:18:20;0;0;
55485;PMS5003;49383;-25.924;28.194;2023-03-14T12:20:49;0;0;
55485;PMS5003;49383;-25.924;28.194;2023-03-14T12:23:10;0;0;
55485;PMS5003;49383;-25.924;28.194;2023-03-14T12:25:34;0;0;
55485;PMS5003;49383;-25.924;28.194;2023-03-14T12:28:04;1;1;
55485;PMS5003;49383;-25.924;28.194;2023-03-14T12:30:26;1;1;
55485;PMS5003;49383;-25.924;28.194;2023-03-14T12:37:41;0;0;
55485;PMS5003;49383;-25.924;28.194;2023-03-14T12:49:46;1;1;
55485;PMS5003;49383;-25.924;28.194;2023-03-14T12:52:12;1;1;
55485;PMS5003;49383;-25.924;28.194;2023-03-14T12:54:37;1;1;
55485;PMS5003;49383;-25.924;28.194;2023-03-14T12:57:04;0;0;
55485;PMS5003;49383;-25.924;28.194;2023-03-14T12:59:29;2;2;
55485;PMS5003;49383;-25.924;28.194;2023-03-14T13:01:53;1;0;
55485;PMS5003;49383;-25.924;28.194;2023-03-14T13:04:16;0;0;
55485;PMS5003;49383;-25.924;28.194;2023-03-14T13:11:31;1;1;
55485;PMS5003;49383;-25.924;28.194;2023-03-14T13:13:57;0;0;
55485;PMS5003;49383;-25.924;28.194;2023-03-14T13:16:22;2;0;
55485;PMS5003;49383;-25.924;28.194;2023-03-14T13:18:47;1;1;
55485;PMS5003;49383;-25.924;28.194;2023-03-14T13:21:13;0;0;
55485;PMS5003;49383;-25.924;28.194;2023-03-14T13:23:37;1;1;
55485;PMS5003;49383;-25.924;28.194;2023-03-14T13:26:02;1;0;
55485;PMS5003;49383;-25.924;28.194;2023-03-14T13:28:27;0;0;
55485;PMS5003;49383;-25.924;28.194;2023-03-14T13:30:54;0;0;
55485;PMS5003;49383;-25.924;28.194;2023-03-14T13:33:19;1;1;
55485;PMS5003;49383;-25.924;28.194;2023-03-14T13:35:43;1;1;
55485;PMS5003;49383;-25.924;28.194;2023-03-14T13:40:33;0;0;
55485;PMS5003;49383;-25.924;28.194;2023-03-14T13:43:02;0;0;
55485;PMS5003;49383;-25.924;28.194;2023-03-14T13:45:23;1;1;
55485;PMS5003;49383;-25.924;28.194;2023-03-14T13:47:48;1;1;
55485;PMS5003;49383;-25.924;28.194;2023-03-14T13:50:15;1;0;
55485;PMS5003;49383;-25.924;28.194;2023-03-14T13:52:38;0;0;
55485;PMS5003;49383;-25.924;28.194;2023-03-14T13:55:04;0;0;
55485;PMS5003;49383;-25.924;28.194;2023-03-14T13:57:28;0;0;
55485;PMS5003;49383;-25.924;28.194;2023-03-14T13:59:58;0;0;
55485;PMS5003;49383;-25.924;28.194;2023-03-14T14:02:18;0;0;
55485;PMS5003;49383;-25.924;28.194;2023-03-14T14:04:44;0;0;
55485;PMS5003;49383;-25.924;28.194;2023-03-14T14:07:09;0;0;
55485;PMS5003;49383;-25.924;28.194;2023-03-14T14:09:36;0;0;
55485;PMS5003;49383;-25.924;28.194;2023-03-14T14:11:59;0;0;
55485;PMS5003;49383;-25.924;28.194;2023-03-14T14:14:25;0;0;
55485;PMS5003;49383;-25.924;28.194;2023-03-14T14:16:49;0;0;
55485;PMS5003;49383;-25.924;28.194;2023-03-14T14:19:14;0;0;
55485;PMS5003;49383;-25.924;28.194;2023-03-14T14:21:39;0;0;
55485;PMS5003;49383;-25.924;28.194;2023-03-14T14:24:05;1;0;
55485;PMS5003;49383;-25.924;28.194;2023-03-14T14:26:29;1;1;
55485;PMS5003;49383;-25.924;28.194;2023-03-14T14:31:20;0;0;
55485;PMS5003;49383;-25.924;28.194;2023-03-14T14:33:45;0;0;
55485;PMS5003;49383;-25.924;28.194;2023-03-14T14:36:15;0;0;
55485;PMS5003;49383;-25.924;28.194;2023-03-14T14:38:35;1;1;
55485;PMS5003;49383;-25.924;28.194;2023-03-14T14:41:00;1;1;
55485;PMS5003;49383;-25.924;28.194;2023-03-14T14:43:26;0;0;
55485;PMS5003;49383;-25.924;28.194;2023-03-14T14:45:51;0;0;
55485;PMS5003;49383;-25.924;28.194;2023-03-14T14:48:17;0;0;
55485;PMS5003;49383;-25.924;28.194;2023-03-14T14:55:31;0;0;
55485;PMS5003;49383;-25.924;28.194;2023-03-14T14:57:56;1;1;
55485;PMS5003;49383;-25.924;28.194;2023-03-14T15:00:22;2;1;
55485;PMS5003;49383;-25.924;28.194;2023-03-14T15:02:46;3;3;
55485;PMS5003;49383;-25.924;28.194;2023-03-14T15:05:12;3;3;
55485;PMS5003;49383;-25.924;28.194;2023-03-14T15:07:36;3;3;
55485;PMS5003;49383;-25.924;28.194;2023-03-14T15:10:01;4;2;
55485;PMS5003;49383;-25.924;28.194;2023-03-14T15:12:26;6;5;
55485;PMS5003;49383;-25.924;28.194;2023-03-14T15:14:51;2;2;
55485;PMS5003;49383;-25.924;28.194;2023-03-14T15:17:17;2;2;
55485;PMS5003;49383;-25.924;28.194;2023-03-14T15:19:42;3;3;
55485;PMS5003;49383;-25.924;28.194;2023-03-14T15:22:09;2;2;
55485;PMS5003;49383;-25.924;28.194;2023-03-14T15:24:32;3;1;
55485;PMS5003;49383;-25.924;28.194;2023-03-14T15:26:57;4;3;
55485;PMS5003;49383;-25.924;28.194;2023-03-14T15:29:22;1;1;
55485;PMS5003;49383;-25.924;28.194;2023-03-14T15:31:48;2;1;
55485;PMS5003;49383;-25.924;28.194;2023-03-14T15:34:13;1;1;
55485;PMS5003;49383;-25.924;28.194;2023-03-14T15:36:38;2;1;
55485;PMS5003;49383;-25.924;28.194;2023-03-14T15:39:03;2;1;
55485;PMS5003;49383;-25.924;28.194;2023-03-14T15:41:28;0;0;
55485;PMS5003;49383;-25.924;28.194;2023-03-14T15:43:53;1;1;
55485;PMS5003;49383;-25.924;28.194;2023-03-14T15:46:18;1;1;
55485;PMS5003;49383;-25.924;28.194;2023-03-14T15:48:43;7;3;
55485;PMS5003;49383;-25.924;28.194;2023-03-14T15:51:09;0;0;
55485;PMS5003;49383;-25.924;28.194;2023-03-14T15:53:34;0;0;
55485;PMS5003;49383;-25.924;28.194;2023-03-14T15:55:59;1;1;
55485;PMS5003;49383;-25.924;28.194;2023-03-14T15:58:24;1;1;
55485;PMS5003;49383;-25.924;28.194;2023-03-14T16:00:49;1;1;
55485;PMS5003;49383;-25.924;28.194;2023-03-14T16:03:14;2;1;
55485;PMS5003;49383;-25.924;28.194;2023-03-14T16:05:39;2;1;
55485;PMS5003;49383;-25.924;28.194;2023-03-14T16:08:05;1;0;
55485;PMS5003;49383;-25.924;28.194;2023-03-14T16:10:30;0;0;
55485;PMS5003;49383;-25.924;28.194;2023-03-14T16:12:55;1;1;
55485;PMS5003;49383;-25.924;28.194;2023-03-14T16:15:20;2;2;
55485;PMS5003;49383;-25.924;28.194;2023-03-14T16:17:45;1;1;
55485;PMS5003;49383;-25.924;28.194;2023-03-14T16:20:10;0;0;
55485;PMS5003;49383;-25.924;28.194;2023-03-14T16:22:35;1;1;
55485;PMS5003;49383;-25.924;28.194;2023-03-14T16:25:00;0;0;
55485;PMS5003;49383;-25.924;28.194;2023-03-14T16:27:25;0;0;
55485;PMS5003;49383;-25.924;28.194;2023-03-14T16:29:50;0;0;